sensor_id;sensor_type;location;lat;lon;timestamp;temperature;humidity
21037;DHT22;10677;50.942;4.028;2023-01-29T00:00:02;1.10;99.90
21037;DHT22;10677;50.942;4.028;2023-01-29T00:02:35;1.20;99.90
21037;DHT22;10677;50.942;4.028;2023-01-29T00:05:02;1.00;99.90
21037;DHT22;10677;50.942;4.028;2023-01-29T00:07:28;0.90;99.90
21037;DHT22;10677;50.942;4.028;2023-01-29T00:09:54;0.90;99.90
21037;DHT22;10677;50.942;4.028;2023-01-29T00:12:20;1.00;99.90
21037;DHT22;10677;50.942;4.028;2023-01-29T00:14:45;1.00;99.90
21037;DHT22;10677;50.942;4.028;2023-01-29T00:17:11;1.10;99.90
21037;DHT22;10677;50.942;4.028;2023-01-29T00:19:37;1.10;99.90
21037;DHT22;10677;50.942;4.028;2023-01-29T00:22:02;1.10;99.90
21037;DHT22;10677;50.942;4.028;2023-01-29T00:24:28;1.10;99.90
21037;DHT22;10677;50.942;4.028;2023-01-29T00:26:54;1.10;99.90
21037;DHT22;10677;50.942;4.028;2023-01-29T00:29:20;1.00;99.90
21037;DHT22;10677;50.942;4.028;2023-01-29T00:31:46;1.00;99.90
21037;DHT22;10677;50.942;4.028;2023-01-29T00:34:12;1.10;99.90
21037;DHT22;10677;50.942;4.028;2023-01-29T00:36:38;1.20;99.90
21037;DHT22;10677;50.942;4.028;2023-01-29T00:39:03;1.20;99.90
21037;DHT22;10677;50.942;4.028;2023-01-29T00:41:35;1.10;99.90
21037;DHT22;10677;50.942;4.028;2023-01-29T00:44:20;1.00;99.90
21037;DHT22;10677;50.942;4.028;2023-01-29T00:47:05;0.90;99.90
21037;DHT22;10677;50.942;4.028;2023-01-29T00:49:50;0.90;99.90
21037;DHT22;10677;50.942;4.028;2023-01-29T00:52:15;0.90;99.90
21037;DHT22;10677;50.942;4.028;2023-01-29T00:54:58;0.90;99.90
21037;DHT22;10677;50.942;4.028;2023-01-29T00:57:26;0.80;99.90
21037;DHT22;10677;50.942;4.028;2023-01-29T00:59:52;0.80;99.90
21037;DHT22;10677;50.942;4.028;2023-01-29T01:02:18;0.90;99.90
21037;DHT22;10677;50.942;4.028;2023-01-29T01:05:02;0.90;99.90
21037;DHT22;10677;50.942;4.028;2023-01-29T01:07:29;0.80;99.90
21037;DHT22;10677;50.942;4.028;2023-01-29T01:09:54;0.80;99.90
21037;DHT22;10677;50.942;4.028;2023-01-29T01:12:38;0.90;99.90
21037;DHT22;10677;50.942;4.028;2023-01-29T01:15:04;0.70;99.90
21037;DHT22;10677;50.942;4.028;2023-01-29T01:17:30;0.70;99.90
21037;DHT22;10677;50.942;4.028;2023-01-29T01:19:56;0.90;99.90
21037;DHT22;10677;50.942;4.028;2023-01-29T01:22:21;0.80;99.90
21037;DHT22;10677;50.942;4.028;2023-01-29T01:24:47;0.90;99.90
21037;DHT22;10677;50.942;4.028;2023-01-29T01:27:12;0.80;99.90
21037;DHT22;10677;50.942;4.028;2023-01-29T01:29:38;0.70;99.90
21037;DHT22;10677;50.942;4.028;2023-01-29T01:32:05;0.70;99.90
21037;DHT22;10677;50.942;4.028;2023-01-29T01:34:31;0.80;99.90
21037;DHT22;10677;50.942;4.028;2023-01-29T01:36:56;0.80;99.90
21037;DHT22;10677;50.942;4.028;2023-01-29T01:39:25;0.90;99.90
21037;DHT22;10677;50.942;4.028;2023-01-29T01:41:52;1.00;99.90
21037;DHT22;10677;50.942;4.028;2023-01-29T01:44:53;1.00;99.90
21037;DHT22;10677;50.942;4.028;2023-01-29T01:47:41;1.00;99.90
21037;DHT22;10677;50.942;4.028;2023-01-29T01:50:26;1.00;99.90
21037;DHT22;10677;50.942;4.028;2023-01-29T01:52:59;0.90;99.90
21037;DHT22;10677;50.942;4.028;2023-01-29T01:55:27;0.80;99.90
21037;DHT22;10677;50.942;4.028;2023-01-29T01:58:05;0.80;99.90
21037;DHT22;10677;50.942;4.028;2023-01-29T02:00:33;0.80;99.90
21037;DHT22;10677;50.942;4.028;2023-01-29T02:03:00;0.80;99.90
21037;DHT22;10677;50.942;4.028;2023-01-29T02:05:46;0.80;99.90
21037;DHT22;10677;50.942;4.028;2023-01-29T02:12:06;0.80;99.90
21037;DHT22;10677;50.942;4.028;2023-01-29T02:14:35;0.70;99.90
21037;DHT22;10677;50.942;4.028;2023-01-29T02:17:05;0.80;99.90
21037;DHT22;10677;50.942;4.028;2023-01-29T02:28:30;1.00;99.90
21037;DHT22;10677;50.942;4.028;2023-01-29T02:36:45;1.10;99.90
21037;DHT22;10677;50.942;4.028;2023-01-29T02:39:54;1.10;99.90
21037;DHT22;10677;50.942;4.028;2023-01-29T02:42:35;1.30;99.90
21037;DHT22;10677;50.942;4.028;2023-01-29T02:45:12;1.30;99.90
21037;DHT22;10677;50.942;4.028;2023-01-29T02:47:44;1.30;99.90
21037;DHT22;10677;50.942;4.028;2023-01-29T02:50:30;1.30;99.90
21037;DHT22;10677;50.942;4.028;2023-01-29T02:53:07;1.40;99.90
21037;DHT22;10677;50.942;4.028;2023-01-29T02:55:43;1.30;99.90
21037;DHT22;10677;50.942;4.028;2023-01-29T02:58:26;1.40;99.90
21037;DHT22;10677;50.942;4.028;2023-01-29T03:00:55;1.40;99.90
21037;DHT22;10677;50.942;4.028;2023-01-29T03:06:11;1.50;99.90
21037;DHT22;10677;50.942;4.028;2023-01-29T03:08:59;1.60;99.90
21037;DHT22;10677;50.942;4.028;2023-01-29T03:11:34;1.50;99.90
21037;DHT22;10677;50.942;4.028;2023-01-29T03:14:15;1.60;99.90
21037;DHT22;10677;50.942;4.028;2023-01-29T03:16:45;1.60;99.90
21037;DHT22;10677;50.942;4.028;2023-01-29T03:19:33;1.60;99.90
21037;DHT22;10677;50.942;4.028;2023-01-29T03:22:02;1.70;99.90
21037;DHT22;10677;50.942;4.028;2023-01-29T03:24:55;1.80;99.90
21037;DHT22;10677;50.942;4.028;2023-01-29T03:27:48;1.70;99.90
21037;DHT22;10677;50.942;4.028;2023-01-29T03:30:37;1.80;99.90
21037;DHT22;10677;50.942;4.028;2023-01-29T03:33:25;1.60;99.90
21037;DHT22;10677;50.942;4.028;2023-01-29T03:35:58;1.60;99.90
21037;DHT22;10677;50.942;4.028;2023-01-29T03:38:27;1.60;99.90
21037;DHT22;10677;50.942;4.028;2023-01-29T03:41:01;1.60;99.90
21037;DHT22;10677;50.942;4.028;2023-01-29T03:43:43;1.70;99.90
21037;DHT22;10677;50.942;4.028;2023-01-29T03:46:31;1.70;99.90
21037;DHT22;10677;50.942;4.028;2023-01-29T03:49:14;1.70;99.90
21037;DHT22;10677;50.942;4.028;2023-01-29T03:51:59;1.80;99.90
21037;DHT22;10677;50.942;4.028;2023-01-29T03:54:47;1.80;99.90
21037;DHT22;10677;50.942;4.028;2023-01-29T03:57:32;1.90;99.90
21037;DHT22;10677;50.942;4.028;2023-01-29T04:03:04;1.80;99.90
21037;DHT22;10677;50.942;4.028;2023-01-29T04:05:41;1.70;99.90
21037;DHT22;10677;50.942;4.028;2023-01-29T04:08:11;1.60;99.90
21037;DHT22;10677;50.942;4.028;2023-01-29T04:10:40;1.60;99.90
21037;DHT22;10677;50.942;4.028;2023-01-29T04:13:10;1.60;99.90
21037;DHT22;10677;50.942;4.028;2023-01-29T04:15:52;1.60;99.90
21037;DHT22;10677;50.942;4.028;2023-01-29T04:18:18;1.60;99.90
21037;DHT22;10677;50.942;4.028;2023-01-29T04:20:44;1.50;99.90
21037;DHT22;10677;50.942;4.028;2023-01-29T04:23:24;1.50;99.90
21037;DHT22;10677;50.942;4.028;2023-01-29T04:31:33;1.60;99.90
21037;DHT22;10677;50.942;4.028;2023-01-29T04:42:19;1.40;99.90
21037;DHT22;10677;50.942;4.028;2023-01-29T04:47:37;1.40;99.90
21037;DHT22;10677;50.942;4.028;2023-01-29T04:53:03;1.50;99.90
21037;DHT22;10677;50.942;4.028;2023-01-29T04:58:14;1.40;99.90
21037;DHT22;10677;50.942;4.028;2023-01-29T05:00:47;1.40;99.90
21037;DHT22;10677;50.942;4.028;2023-01-29T05:03:15;1.40;99.90
21037;DHT22;10677;50.942;4.028;2023-01-29T05:05:45;1.40;99.90
21037;DHT22;10677;50.942;4.028;2023-01-29T05:08:16;1.40;99.90
21037;DHT22;10677;50.942;4.028;2023-01-29T05:10:42;1.40;99.90
21037;DHT22;10677;50.942;4.028;2023-01-29T05:13:10;1.40;99.90
21037;DHT22;10677;50.942;4.028;2023-01-29T05:18:11;1.60;99.90
21037;DHT22;10677;50.942;4.028;2023-01-29T05:20:39;1.60;99.90
21037;DHT22;10677;50.942;4.028;2023-01-29T05:23:11;1.70;99.90
21037;DHT22;10677;50.942;4.028;2023-01-29T05:25:39;1.70;99.90
21037;DHT22;10677;50.942;4.028;2023-01-29T05:28:05;1.60;99.90
21037;DHT22;10677;50.942;4.028;2023-01-29T05:30:33;1.60;99.90
21037;DHT22;10677;50.942;4.028;2023-01-29T05:33:00;1.60;99.90
21037;DHT22;10677;50.942;4.028;2023-01-29T05:35:25;1.60;99.90
21037;DHT22;10677;50.942;4.028;2023-01-29T05:37:54;1.40;99.90
21037;DHT22;10677;50.942;4.028;2023-01-29T05:40:20;1.60;99.90
21037;DHT22;10677;50.942;4.028;2023-01-29T05:42:45;1.60;99.90
21037;DHT22;10677;50.942;4.028;2023-01-29T05:45:11;1.50;99.90
21037;DHT22;10677;50.942;4.028;2023-01-29T05:47:37;1.60;99.90
21037;DHT22;10677;50.942;4.028;2023-01-29T05:50:02;1.70;99.90
21037;DHT22;10677;50.942;4.028;2023-01-29T05:52:28;1.70;99.90
21037;DHT22;10677;50.942;4.028;2023-01-29T05:54:54;1.90;99.90
21037;DHT22;10677;50.942;4.028;2023-01-29T05:57:19;1.80;99.90
21037;DHT22;10677;50.942;4.028;2023-01-29T05:59:45;1.90;99.90
21037;DHT22;10677;50.942;4.028;2023-01-29T06:02:12;1.80;99.90
21037;DHT22;10677;50.942;4.028;2023-01-29T06:04:37;1.70;99.90
21037;DHT22;10677;50.942;4.028;2023-01-29T06:07:03;1.60;99.90
21037;DHT22;10677;50.942;4.028;2023-01-29T06:09:29;1.70;99.90
21037;DHT22;10677;50.942;4.028;2023-01-29T06:11:55;1.70;99.90
21037;DHT22;10677;50.942;4.028;2023-01-29T06:14:21;1.90;99.90
21037;DHT22;10677;50.942;4.028;2023-01-29T06:16:46;1.90;99.90
21037;DHT22;10677;50.942;4.028;2023-01-29T06:19:12;2.00;99.90
21037;DHT22;10677;50.942;4.028;2023-01-29T06:21:38;2.00;99.90
21037;DHT22;10677;50.942;4.028;2023-01-29T06:24:03;2.00;99.90
21037;DHT22;10677;50.942;4.028;2023-01-29T06:26:29;2.00;99.90
21037;DHT22;10677;50.942;4.028;2023-01-29T06:28:55;1.90;99.90
21037;DHT22;10677;50.942;4.028;2023-01-29T06:31:20;1.90;99.90
21037;DHT22;10677;50.942;4.028;2023-01-29T06:33:46;1.90;99.90
21037;DHT22;10677;50.942;4.028;2023-01-29T06:36:12;1.90;99.90
21037;DHT22;10677;50.942;4.028;2023-01-29T06:38:37;1.80;99.90
21037;DHT22;10677;50.942;4.028;2023-01-29T06:41:11;1.80;99.90
21037;DHT22;10677;50.942;4.028;2023-01-29T06:43:37;1.80;99.90
21037;DHT22;10677;50.942;4.028;2023-01-29T06:46:06;1.80;99.90
21037;DHT22;10677;50.942;4.028;2023-01-29T06:48:32;1.80;99.90
21037;DHT22;10677;50.942;4.028;2023-01-29T06:51:04;1.90;99.90
21037;DHT22;10677;50.942;4.028;2023-01-29T06:53:31;1.90;99.90
21037;DHT22;10677;50.942;4.028;2023-01-29T06:55:57;2.00;99.90
21037;DHT22;10677;50.942;4.028;2023-01-29T06:58:23;2.10;99.90
21037;DHT22;10677;50.942;4.028;2023-01-29T07:00:49;2.30;99.90
21037;DHT22;10677;50.942;4.028;2023-01-29T07:03:14;2.30;99.90
21037;DHT22;10677;50.942;4.028;2023-01-29T07:05:40;2.20;99.90
21037;DHT22;10677;50.942;4.028;2023-01-29T07:08:06;2.00;99.90
21037;DHT22;10677;50.942;4.028;2023-01-29T07:10:33;1.90;99.90
21037;DHT22;10677;50.942;4.028;2023-01-29T07:12:58;1.80;99.90
21037;DHT22;10677;50.942;4.028;2023-01-29T07:15:24;1.80;99.90
21037;DHT22;10677;50.942;4.028;2023-01-29T07:17:59;1.80;99.90
21037;DHT22;10677;50.942;4.028;2023-01-29T07:20:27;1.90;99.90
21037;DHT22;10677;50.942;4.028;2023-01-29T07:22:54;1.90;99.90
21037;DHT22;10677;50.942;4.028;2023-01-29T07:25:20;1.90;99.90
21037;DHT22;10677;50.942;4.028;2023-01-29T07:27:46;1.90;99.90
21037;DHT22;10677;50.942;4.028;2023-01-29T07:30:15;2.00;99.90
21037;DHT22;10677;50.942;4.028;2023-01-29T07:32:45;2.00;99.90
21037;DHT22;10677;50.942;4.028;2023-01-29T07:35:10;1.90;99.90
21037;DHT22;10677;50.942;4.028;2023-01-29T07:37:36;1.90;99.90
21037;DHT22;10677;50.942;4.028;2023-01-29T07:40:02;1.90;99.90
21037;DHT22;10677;50.942;4.028;2023-01-29T07:42:29;1.90;99.90
21037;DHT22;10677;50.942;4.028;2023-01-29T07:44:55;1.80;99.90
21037;DHT22;10677;50.942;4.028;2023-01-29T07:47:21;1.90;99.90
21037;DHT22;10677;50.942;4.028;2023-01-29T07:49:46;1.90;99.90
21037;DHT22;10677;50.942;4.028;2023-01-29T07:52:12;1.80;99.90
21037;DHT22;10677;50.942;4.028;2023-01-29T07:54:38;1.90;99.90
21037;DHT22;10677;50.942;4.028;2023-01-29T07:57:03;1.90;99.90
21037;DHT22;10677;50.942;4.028;2023-01-29T07:59:30;1.90;99.90
21037;DHT22;10677;50.942;4.028;2023-01-29T08:01:55;2.00;99.90
21037;DHT22;10677;50.942;4.028;2023-01-29T08:04:21;2.10;99.90
21037;DHT22;10677;50.942;4.028;2023-01-29T08:06:46;2.10;99.90
21037;DHT22;10677;50.942;4.028;2023-01-29T08:09:12;2.20;99.90
21037;DHT22;10677;50.942;4.028;2023-01-29T08:11:38;2.20;99.90
21037;DHT22;10677;50.942;4.028;2023-01-29T08:14:04;2.30;99.90
21037;DHT22;10677;50.942;4.028;2023-01-29T08:16:30;2.40;99.90
21037;DHT22;10677;50.942;4.028;2023-01-29T08:18:55;2.30;99.90
21037;DHT22;10677;50.942;4.028;2023-01-29T08:21:21;2.30;99.90
21037;DHT22;10677;50.942;4.028;2023-01-29T08:23:48;2.30;99.90
21037;DHT22;10677;50.942;4.028;2023-01-29T08:26:14;2.20;99.90
21037;DHT22;10677;50.942;4.028;2023-01-29T08:28:39;2.20;99.90
21037;DHT22;10677;50.942;4.028;2023-01-29T08:31:18;2.20;99.90
21037;DHT22;10677;50.942;4.028;2023-01-29T08:33:47;2.30;99.90
21037;DHT22;10677;50.942;4.028;2023-01-29T08:36:13;2.30;99.90
21037;DHT22;10677;50.942;4.028;2023-01-29T08:38:39;2.30;99.90
21037;DHT22;10677;50.942;4.028;2023-01-29T08:41:05;2.30;99.90
21037;DHT22;10677;50.942;4.028;2023-01-29T08:43:31;2.30;99.90
21037;DHT22;10677;50.942;4.028;2023-01-29T08:45:57;2.40;99.90
21037;DHT22;10677;50.942;4.028;2023-01-29T08:48:22;2.50;99.90
21037;DHT22;10677;50.942;4.028;2023-01-29T08:50:49;2.60;99.90
21037;DHT22;10677;50.942;4.028;2023-01-29T08:53:15;2.60;99.90
21037;DHT22;10677;50.942;4.028;2023-01-29T08:55:41;2.60;99.90
21037;DHT22;10677;50.942;4.028;2023-01-29T08:58:08;2.70;99.90
21037;DHT22;10677;50.942;4.028;2023-01-29T09:00:34;2.70;99.90
21037;DHT22;10677;50.942;4.028;2023-01-29T09:03:00;2.80;99.90
21037;DHT22;10677;50.942;4.028;2023-01-29T09:05:27;2.60;99.90
21037;DHT22;10677;50.942;4.028;2023-01-29T09:07:55;2.80;99.90
21037;DHT22;10677;50.942;4.028;2023-01-29T09:10:20;2.80;99.90
21037;DHT22;10677;50.942;4.028;2023-01-29T09:12:46;2.90;99.90
21037;DHT22;10677;50.942;4.028;2023-01-29T09:15:12;2.90;99.90
21037;DHT22;10677;50.942;4.028;2023-01-29T09:17:37;2.80;99.90
21037;DHT22;10677;50.942;4.028;2023-01-29T09:20:03;2.80;99.90
21037;DHT22;10677;50.942;4.028;2023-01-29T09:22:32;2.80;99.90
21037;DHT22;10677;50.942;4.028;2023-01-29T09:24:58;2.80;99.90
21037;DHT22;10677;50.942;4.028;2023-01-29T09:27:24;2.90;99.90
21037;DHT22;10677;50.942;4.028;2023-01-29T09:29:50;3.00;99.90
21037;DHT22;10677;50.942;4.028;2023-01-29T09:32:15;3.00;99.90
21037;DHT22;10677;50.942;4.028;2023-01-29T09:34:41;3.10;99.90
21037;DHT22;10677;50.942;4.028;2023-01-29T09:37:07;3.20;99.90
21037;DHT22;10677;50.942;4.028;2023-01-29T09:39:33;3.20;99.90
21037;DHT22;10677;50.942;4.028;2023-01-29T09:42:23;3.30;99.90
21037;DHT22;10677;50.942;4.028;2023-01-29T09:44:55;3.30;99.90
21037;DHT22;10677;50.942;4.028;2023-01-29T09:47:25;3.20;99.90
21037;DHT22;10677;50.942;4.028;2023-01-29T09:49:56;3.20;99.90
21037;DHT22;10677;50.942;4.028;2023-01-29T09:52:26;3.20;99.90
21037;DHT22;10677;50.942;4.028;2023-01-29T09:55:13;3.20;99.90
21037;DHT22;10677;50.942;4.028;2023-01-29T09:58:10;3.30;99.90
21037;DHT22;10677;50.942;4.028;2023-01-29T10:00:43;3.40;99.90
21037;DHT22;10677;50.942;4.028;2023-01-29T10:03:39;3.60;99.90
21037;DHT22;10677;50.942;4.028;2023-01-29T10:15:10;3.90;99.90
21037;DHT22;10677;50.942;4.028;2023-01-29T10:25:28;4.30;99.90
21037;DHT22;10677;50.942;4.028;2023-01-29T10:27:56;4.30;99.90
21037;DHT22;10677;50.942;4.028;2023-01-29T10:30:37;4.50;99.90
21037;DHT22;10677;50.942;4.028;2023-01-29T10:33:08;4.50;99.90
21037;DHT22;10677;50.942;4.028;2023-01-29T10:35:40;4.60;99.90
21037;DHT22;10677;50.942;4.028;2023-01-29T11:00:26;4.90;99.90
21037;DHT22;10677;50.942;4.028;2023-01-29T11:02:53;4.80;99.90
21037;DHT22;10677;50.942;4.028;2023-01-29T11:05:30;4.80;99.90
21037;DHT22;10677;50.942;4.028;2023-01-29T11:08:07;4.80;99.90
21037;DHT22;10677;50.942;4.028;2023-01-29T11:13:21;4.80;99.90
21037;DHT22;10677;50.942;4.028;2023-01-29T11:15:51;4.80;99.90
21037;DHT22;10677;50.942;4.028;2023-01-29T11:18:17;4.70;99.90
21037;DHT22;10677;50.942;4.028;2023-01-29T11:20:44;4.70;99.90
21037;DHT22;10677;50.942;4.028;2023-01-29T11:23:25;4.70;99.90
21037;DHT22;10677;50.942;4.028;2023-01-29T11:25:52;4.80;99.90
21037;DHT22;10677;50.942;4.028;2023-01-29T11:28:55;4.80;99.90
21037;DHT22;10677;50.942;4.028;2023-01-29T11:31:28;4.90;99.90
21037;DHT22;10677;50.942;4.028;2023-01-29T11:34:21;4.90;99.90
21037;DHT22;10677;50.942;4.028;2023-01-29T11:37:01;4.90;99.90
21037;DHT22;10677;50.942;4.028;2023-01-29T11:39:30;4.90;99.90
21037;DHT22;10677;50.942;4.028;2023-01-29T11:41:58;5.00;99.90
21037;DHT22;10677;50.942;4.028;2023-01-29T11:46:56;5.00;99.90
21037;DHT22;10677;50.942;4.028;2023-01-29T11:49:32;5.20;99.90
21037;DHT22;10677;50.942;4.028;2023-01-29T11:52:01;5.10;99.90
21037;DHT22;10677;50.942;4.028;2023-01-29T11:54:32;5.00;99.90
21037;DHT22;10677;50.942;4.028;2023-01-29T11:57:00;5.00;99.90
21037;DHT22;10677;50.942;4.028;2023-01-29T11:59:33;5.10;99.90
21037;DHT22;10677;50.942;4.028;2023-01-29T12:02:37;5.10;99.90
21037;DHT22;10677;50.942;4.028;2023-01-29T12:05:17;5.20;99.90
21037;DHT22;10677;50.942;4.028;2023-01-29T12:07:46;5.30;99.90
21037;DHT22;10677;50.942;4.028;2023-01-29T12:10:39;5.20;99.90
21037;DHT22;10677;50.942;4.028;2023-01-29T12:15:35;5.30;99.90
21037;DHT22;10677;50.942;4.028;2023-01-29T12:18:02;5.40;99.90
21037;DHT22;10677;50.942;4.028;2023-01-29T12:20:41;5.50;99.90
21037;DHT22;10677;50.942;4.028;2023-01-29T12:28:46;5.40;99.90
21037;DHT22;10677;50.942;4.028;2023-01-29T12:34:09;5.40;99.90
21037;DHT22;10677;50.942;4.028;2023-01-29T12:39:13;5.30;99.90
21037;DHT22;10677;50.942;4.028;2023-01-29T12:42:29;5.40;99.90
21037;DHT22;10677;50.942;4.028;2023-01-29T12:44:39;5.40;99.90
21037;DHT22;10677;50.942;4.028;2023-01-29T12:47:17;5.40;99.90
21037;DHT22;10677;50.942;4.028;2023-01-29T12:49:49;5.50;99.90
21037;DHT22;10677;50.942;4.028;2023-01-29T12:52:47;5.60;99.90
21037;DHT22;10677;50.942;4.028;2023-01-29T12:55:22;5.60;99.90
21037;DHT22;10677;50.942;4.028;2023-01-29T12:57:58;5.70;99.90
21037;DHT22;10677;50.942;4.028;2023-01-29T13:00:28;5.70;99.90
21037;DHT22;10677;50.942;4.028;2023-01-29T13:03:07;5.70;99.90
21037;DHT22;10677;50.942;4.028;2023-01-29T13:08:36;5.70;99.90
21037;DHT22;10677;50.942;4.028;2023-01-29T13:11:34;5.70;99.90
21037;DHT22;10677;50.942;4.028;2023-01-29T13:16:36;5.70;99.90
21037;DHT22;10677;50.942;4.028;2023-01-29T13:21:43;5.70;99.90
21037;DHT22;10677;50.942;4.028;2023-01-29T13:24:13;5.70;99.90
21037;DHT22;10677;50.942;4.028;2023-01-29T13:26:44;5.70;99.90
21037;DHT22;10677;50.942;4.028;2023-01-29T13:29:28;5.70;99.90
21037;DHT22;10677;50.942;4.028;2023-01-29T13:31:56;5.70;99.90
21037;DHT22;10677;50.942;4.028;2023-01-29T13:34:29;5.80;99.90
21037;DHT22;10677;50.942;4.028;2023-01-29T13:39:53;5.90;99.90
21037;DHT22;10677;50.942;4.028;2023-01-29T13:42:47;5.90;99.90
21037;DHT22;10677;50.942;4.028;2023-01-29T13:45:23;5.80;99.90
21037;DHT22;10677;50.942;4.028;2023-01-29T13:47:51;5.80;99.90
21037;DHT22;10677;50.942;4.028;2023-01-29T13:50:36;5.80;99.90
21037;DHT22;10677;50.942;4.028;2023-01-29T13:53:05;5.80;99.90
21037;DHT22;10677;50.942;4.028;2023-01-29T13:55:37;5.70;99.90
21037;DHT22;10677;50.942;4.028;2023-01-29T13:58:51;5.80;99.90
21037;DHT22;10677;50.942;4.028;2023-01-29T14:01:03;5.90;99.90
21037;DHT22;10677;50.942;4.028;2023-01-29T14:05:57;5.90;99.90
21037;DHT22;10677;50.942;4.028;2023-01-29T14:08:39;5.80;99.90
21037;DHT22;10677;50.942;4.028;2023-01-29T14:13:49;5.80;99.90
21037;DHT22;10677;50.942;4.028;2023-01-29T14:18:45;6.10;99.90
21037;DHT22;10677;50.942;4.028;2023-01-29T14:23:50;6.00;99.90
21037;DHT22;10677;50.942;4.028;2023-01-29T14:31:57;5.90;99.90
21037;DHT22;10677;50.942;4.028;2023-01-29T14:34:31;5.80;99.90
21037;DHT22;10677;50.942;4.028;2023-01-29T14:39:44;5.90;99.90
21037;DHT22;10677;50.942;4.028;2023-01-29T14:42:33;5.90;99.90
21037;DHT22;10677;50.942;4.028;2023-01-29T14:45:29;6.00;99.90
21037;DHT22;10677;50.942;4.028;2023-01-29T14:50:43;5.90;99.90
21037;DHT22;10677;50.942;4.028;2023-01-29T14:56:31;5.80;99.90
21037;DHT22;10677;50.942;4.028;2023-01-29T14:59:16;5.80;99.90
21037;DHT22;10677;50.942;4.028;2023-01-29T15:01:48;5.80;99.90
21037;DHT22;10677;50.942;4.028;2023-01-29T15:04:24;5.80;99.90
21037;DHT22;10677;50.942;4.028;2023-01-29T15:07:02;5.70;99.90
21037;DHT22;10677;50.942;4.028;2023-01-29T15:14:32;5.60;99.90
21037;DHT22;10677;50.942;4.028;2023-01-29T15:17:17;5.70;99.90
21037;DHT22;10677;50.942;4.028;2023-01-29T15:19:47;5.70;99.90
21037;DHT22;10677;50.942;4.028;2023-01-29T15:22:18;5.70;99.90
21037;DHT22;10677;50.942;4.028;2023-01-29T15:24:45;5.60;99.90
21037;DHT22;10677;50.942;4.028;2023-01-29T15:27:14;5.60;99.90
21037;DHT22;10677;50.942;4.028;2023-01-29T15:29:43;5.60;99.90
21037;DHT22;10677;50.942;4.028;2023-01-29T15:32:31;5.60;99.90
21037;DHT22;10677;50.942;4.028;2023-01-29T15:34:59;5.50;99.90
21037;DHT22;10677;50.942;4.028;2023-01-29T15:37:30;5.50;99.90
21037;DHT22;10677;50.942;4.028;2023-01-29T15:39:57;5.40;99.90
21037;DHT22;10677;50.942;4.028;2023-01-29T15:42:26;5.40;99.90
21037;DHT22;10677;50.942;4.028;2023-01-29T15:44:52;5.40;99.90
21037;DHT22;10677;50.942;4.028;2023-01-29T15:47:27;5.40;99.90
21037;DHT22;10677;50.942;4.028;2023-01-29T15:49:55;5.40;99.90
21037;DHT22;10677;50.942;4.028;2023-01-29T15:52:28;5.40;99.90
21037;DHT22;10677;50.942;4.028;2023-01-29T15:54:55;5.40;99.90
21037;DHT22;10677;50.942;4.028;2023-01-29T15:57:28;5.40;99.90
21037;DHT22;10677;50.942;4.028;2023-01-29T15:59:57;5.20;99.90
21037;DHT22;10677;50.942;4.028;2023-01-29T16:02:41;5.20;99.90
21037;DHT22;10677;50.942;4.028;2023-01-29T16:05:19;5.10;99.90
21037;DHT22;10677;50.942;4.028;2023-01-29T16:07:46;5.20;99.90
21037;DHT22;10677;50.942;4.028;2023-01-29T16:10:25;5.20;99.90
21037;DHT22;10677;50.942;4.028;2023-01-29T16:12:52;5.10;99.90
21037;DHT22;10677;50.942;4.028;2023-01-29T16:15:34;5.00;99.90
21037;DHT22;10677;50.942;4.028;2023-01-29T16:18:04;5.00;99.90
21037;DHT22;10677;50.942;4.028;2023-01-29T16:20:44;5.00;99.90
21037;DHT22;10677;50.942;4.028;2023-01-29T16:23:23;5.00;99.90
21037;DHT22;10677;50.942;4.028;2023-01-29T16:25:50;5.00;99.90
21037;DHT22;10677;50.942;4.028;2023-01-29T16:28:16;5.00;99.90
21037;DHT22;10677;50.942;4.028;2023-01-29T16:30:43;5.00;99.90
21037;DHT22;10677;50.942;4.028;2023-01-29T16:33:14;5.00;99.90
21037;DHT22;10677;50.942;4.028;2023-01-29T16:35:42;5.00;99.90
21037;DHT22;10677;50.942;4.028;2023-01-29T16:38:30;4.90;99.90
21037;DHT22;10677;50.942;4.028;2023-01-29T16:46:37;4.80;99.90
21037;DHT22;10677;50.942;4.028;2023-01-29T16:52:17;4.90;99.90
21037;DHT22;10677;50.942;4.028;2023-01-29T16:54:45;4.80;99.90
21037;DHT22;10677;50.942;4.028;2023-01-29T16:57:15;4.80;99.90
21037;DHT22;10677;50.942;4.028;2023-01-29T16:59:42;4.80;99.90
21037;DHT22;10677;50.942;4.028;2023-01-29T17:02:37;4.80;99.90
21037;DHT22;10677;50.942;4.028;2023-01-29T17:05:06;4.80;99.90
21037;DHT22;10677;50.942;4.028;2023-01-29T17:07:33;4.90;99.90
21037;DHT22;10677;50.942;4.028;2023-01-29T17:10:01;4.90;99.90
21037;DHT22;10677;50.942;4.028;2023-01-29T17:12:28;4.90;99.90
21037;DHT22;10677;50.942;4.028;2023-01-29T17:17:58;4.90;99.90
21037;DHT22;10677;50.942;4.028;2023-01-29T17:20:24;4.80;99.90
21037;DHT22;10677;50.942;4.028;2023-01-29T17:22:49;4.80;99.90
21037;DHT22;10677;50.942;4.028;2023-01-29T17:25:15;4.90;99.90
21037;DHT22;10677;50.942;4.028;2023-01-29T17:27:43;4.90;99.90
21037;DHT22;10677;50.942;4.028;2023-01-29T17:30:17;4.90;99.90
21037;DHT22;10677;50.942;4.028;2023-01-29T17:32:43;4.80;99.90
21037;DHT22;10677;50.942;4.028;2023-01-29T17:35:13;4.80;99.90
21037;DHT22;10677;50.942;4.028;2023-01-29T17:37:39;4.80;99.90
21037;DHT22;10677;50.942;4.028;2023-01-29T17:42:42;4.80;99.90
21037;DHT22;10677;50.942;4.028;2023-01-29T17:45:08;4.80;99.90
21037;DHT22;10677;50.942;4.028;2023-01-29T17:47:35;4.70;99.90
21037;DHT22;10677;50.942;4.028;2023-01-29T17:50:01;4.70;99.90
21037;DHT22;10677;50.942;4.028;2023-01-29T17:52:26;4.80;99.90
21037;DHT22;10677;50.942;4.028;2023-01-29T17:54:52;4.80;99.90
21037;DHT22;10677;50.942;4.028;2023-01-29T17:57:17;4.80;99.90
21037;DHT22;10677;50.942;4.028;2023-01-29T17:59:43;4.70;99.90
21037;DHT22;10677;50.942;4.028;2023-01-29T18:02:09;4.60;99.90
21037;DHT22;10677;50.942;4.028;2023-01-29T18:04:35;4.60;99.90
21037;DHT22;10677;50.942;4.028;2023-01-29T18:07:01;4.60;99.90
21037;DHT22;10677;50.942;4.028;2023-01-29T18:09:26;4.60;99.90
21037;DHT22;10677;50.942;4.028;2023-01-29T18:11:52;4.60;99.90
21037;DHT22;10677;50.942;4.028;2023-01-29T18:14:18;4.50;99.90
21037;DHT22;10677;50.942;4.028;2023-01-29T18:16:44;4.60;99.90
21037;DHT22;10677;50.942;4.028;2023-01-29T18:19:24;4.60;99.90
21037;DHT22;10677;50.942;4.028;2023-01-29T18:21:55;4.60;99.90
21037;DHT22;10677;50.942;4.028;2023-01-29T18:24:21;4.60;99.90
21037;DHT22;10677;50.942;4.028;2023-01-29T18:26:47;4.60;99.90
21037;DHT22;10677;50.942;4.028;2023-01-29T18:29:13;4.60;99.90
21037;DHT22;10677;50.942;4.028;2023-01-29T18:31:39;4.60;99.90
21037;DHT22;10677;50.942;4.028;2023-01-29T18:34:05;4.70;99.90
21037;DHT22;10677;50.942;4.028;2023-01-29T18:36:31;4.70;99.90
21037;DHT22;10677;50.942;4.028;2023-01-29T18:38:57;4.70;99.90
21037;DHT22;10677;50.942;4.028;2023-01-29T18:41:23;4.70;99.90
21037;DHT22;10677;50.942;4.028;2023-01-29T18:43:48;4.70;99.90
21037;DHT22;10677;50.942;4.028;2023-01-29T18:46:17;4.70;99.90
21037;DHT22;10677;50.942;4.028;2023-01-29T18:48:43;4.60;99.90
21037;DHT22;10677;50.942;4.028;2023-01-29T18:51:09;4.70;99.90